sensor_id;sensor_type;location;lat;lon;timestamp;P1;durP1;ratioP1;P2;durP2;ratioP2
46613;SDS011;32338;50.430;6.806;2023-06-01T00:01:40;53.13;;;21.98;;
46613;SDS011;32338;50.430;6.806;2023-06-01T00:04:07;69.50;;;25.20;;
46613;SDS011;32338;50.430;6.806;2023-06-01T00:06:35;68.20;;;20.48;;
46613;SDS011;32338;50.430;6.806;2023-06-01T00:09:02;44.50;;;13.48;;
46613;SDS011;32338;50.430;6.806;2023-06-01T00:11:28;28.70;;;9.00;;
46613;SDS011;32338;50.430;6.806;2023-06-01T00:13:55;48.80;;;14.23;;
46613;SDS011;32338;50.430;6.806;2023-06-01T00:16:22;47.78;;;13.02;;
46613;SDS011;32338;50.430;6.806;2023-06-01T00:18:50;17.25;;;6.60;;
46613;SDS011;32338;50.430;6.806;2023-06-01T00:21:17;28.95;;;9.15;;
46613;SDS011;32338;50.430;6.806;2023-06-01T00:23:46;16.90;;;6.88;;
46613;SDS011;32338;50.430;6.806;2023-06-01T00:26:13;27.13;;;8.18;;
46613;SDS011;32338;50.430;6.806;2023-06-01T00:28:40;56.22;;;20.77;;
46613;SDS011;32338;50.430;6.806;2023-06-01T00:31:06;71.78;;;23.55;;
46613;SDS011;32338;50.430;6.806;2023-06-01T00:33:33;37.20;;;13.05;;
46613;SDS011;32338;50.430;6.806;2023-06-01T00:35:59;41.78;;;16.73;;
46613;SDS011;32338;50.430;6.806;2023-06-01T00:38:26;79.32;;;28.80;;
46613;SDS011;32338;50.430;6.806;2023-06-01T00:40:54;21.80;;;9.10;;
46613;SDS011;32338;50.430;6.806;2023-06-01T00:43:20;6.63;;;3.50;;
46613;SDS011;32338;50.430;6.806;2023-06-01T00:45:47;10.02;;;4.13;;
46613;SDS011;32338;50.430;6.806;2023-06-01T00:48:14;25.30;;;7.20;;
46613;SDS011;32338;50.430;6.806;2023-06-01T00:50:42;34.70;;;12.55;;
46613;SDS011;32338;50.430;6.806;2023-06-01T00:53:11;100.72;;;33.17;;
46613;SDS011;32338;50.430;6.806;2023-06-01T00:55:41;33.05;;;10.88;;
46613;SDS011;32338;50.430;6.806;2023-06-01T00:58:09;45.35;;;15.95;;
46613;SDS011;32338;50.430;6.806;2023-06-01T01:00:37;62.28;;;20.25;;
46613;SDS011;32338;50.430;6.806;2023-06-01T01:03:05;94.43;;;31.55;;
46613;SDS011;32338;50.430;6.806;2023-06-01T01:05:34;107.13;;;38.60;;
46613;SDS011;32338;50.430;6.806;2023-06-01T01:08:05;90.65;;;33.05;;
46613;SDS011;32338;50.430;6.806;2023-06-01T01:10:39;117.97;;;41.45;;
46613;SDS011;32338;50.430;6.806;2023-06-01T01:13:13;116.13;;;38.75;;
46613;SDS011;32338;50.430;6.806;2023-06-01T01:15:47;93.75;;;33.40;;
46613;SDS011;32338;50.430;6.806;2023-06-01T01:18:22;57.45;;;21.05;;
46613;SDS011;32338;50.430;6.806;2023-06-01T01:20:54;58.20;;;20.63;;
46613;SDS011;32338;50.430;6.806;2023-06-01T01:26:24;9.10;;;3.85;;
46613;SDS011;32338;50.430;6.806;2023-06-01T01:29:01;4.95;;;2.78;;
46613;SDS011;32338;50.430;6.806;2023-06-01T01:31:32;15.93;;;6.13;;
46613;SDS011;32338;50.430;6.806;2023-06-01T01:34:01;22.33;;;9.25;;
46613;SDS011;32338;50.430;6.806;2023-06-01T01:36:29;19.50;;;8.68;;
46613;SDS011;32338;50.430;6.806;2023-06-01T01:38:56;6.60;;;3.60;;
46613;SDS011;32338;50.430;6.806;2023-06-01T01:41:22;14.18;;;5.90;;
46613;SDS011;32338;50.430;6.806;2023-06-01T01:43:50;8.95;;;4.20;;
46613;SDS011;32338;50.430;6.806;2023-06-01T01:46:22;8.02;;;4.43;;
46613;SDS011;32338;50.430;6.806;2023-06-01T01:48:52;7.35;;;3.58;;
46613;SDS011;32338;50.430;6.806;2023-06-01T01:51:26;7.43;;;3.05;;
46613;SDS011;32338;50.430;6.806;2023-06-01T01:54:01;4.70;;;2.40;;
46613;SDS011;32338;50.430;6.806;2023-06-01T01:56:31;5.78;;;2.47;;
46613;SDS011;32338;50.430;6.806;2023-06-01T01:58:58;5.20;;;2.58;;
46613;SDS011;32338;50.430;6.806;2023-06-01T02:01:27;5.32;;;3.00;;
46613;SDS011;32338;50.430;6.806;2023-06-01T02:03:57;8.63;;;3.13;;
46613;SDS011;32338;50.430;6.806;2023-06-01T02:06:25;8.25;;;3.80;;
46613;SDS011;32338;50.430;6.806;2023-06-01T02:08:52;7.63;;;2.95;;
46613;SDS011;32338;50.430;6.806;2023-06-01T02:11:19;10.02;;;3.83;;
46613;SDS011;32338;50.430;6.806;2023-06-01T02:13:45;18.73;;;5.40;;
46613;SDS011;32338;50.430;6.806;2023-06-01T02:16:12;22.13;;;7.30;;
46613;SDS011;32338;50.430;6.806;2023-06-01T02:18:40;16.27;;;5.85;;
46613;SDS011;32338;50.430;6.806;2023-06-01T02:21:10;10.68;;;5.30;;
46613;SDS011;32338;50.430;6.806;2023-06-01T02:23:37;15.43;;;5.72;;
46613;SDS011;32338;50.430;6.806;2023-06-01T02:26:04;18.83;;;6.75;;
46613;SDS011;32338;50.430;6.806;2023-06-01T02:28:31;6.80;;;4.43;;
46613;SDS011;32338;50.430;6.806;2023-06-01T02:30:58;9.80;;;3.38;;
46613;SDS011;32338;50.430;6.806;2023-06-01T02:33:24;6.05;;;3.85;;
46613;SDS011;32338;50.430;6.806;2023-06-01T02:35:52;10.23;;;4.85;;
46613;SDS011;32338;50.430;6.806;2023-06-01T02:38:19;9.80;;;4.13;;
46613;SDS011;32338;50.430;6.806;2023-06-01T02:40:45;9.98;;;3.25;;
46613;SDS011;32338;50.430;6.806;2023-06-01T02:43:12;14.65;;;3.90;;
46613;SDS011;32338;50.430;6.806;2023-06-01T02:45:39;10.32;;;3.88;;
46613;SDS011;32338;50.430;6.806;2023-06-01T02:48:05;10.98;;;4.07;;
46613;SDS011;32338;50.430;6.806;2023-06-01T02:50:32;7.60;;;4.32;;
46613;SDS011;32338;50.430;6.806;2023-06-01T02:53:00;14.27;;;4.10;;
46613;SDS011;32338;50.430;6.806;2023-06-01T02:55:26;7.20;;;3.60;;
46613;SDS011;32338;50.430;6.806;2023-06-01T02:57:53;8.25;;;3.88;;
46613;SDS011;32338;50.430;6.806;2023-06-01T03:00:19;10.80;;;4.72;;
46613;SDS011;32338;50.430;6.806;2023-06-01T03:02:47;11.10;;;4.22;;
46613;SDS011;32338;50.430;6.806;2023-06-01T03:05:14;16.20;;;6.40;;
46613;SDS011;32338;50.430;6.806;2023-06-01T03:07:42;10.30;;;5.93;;
46613;SDS011;32338;50.430;6.806;2023-06-01T03:10:11;21.52;;;8.68;;
46613;SDS011;32338;50.430;6.806;2023-06-01T03:12:38;16.02;;;6.20;;
46613;SDS011;32338;50.430;6.806;2023-06-01T03:15:05;17.45;;;3.88;;
46613;SDS011;32338;50.430;6.806;2023-06-01T03:17:32;12.15;;;5.07;;
46613;SDS011;32338;50.430;6.806;2023-06-01T03:19:59;8.80;;;3.53;;
46613;SDS011;32338;50.430;6.806;2023-06-01T03:22:27;10.23;;;3.72;;
46613;SDS011;32338;50.430;6.806;2023-06-01T03:24:54;9.15;;;3.33;;
46613;SDS011;32338;50.430;6.806;2023-06-01T03:27:22;6.60;;;2.70;;
46613;SDS011;32338;50.430;6.806;2023-06-01T03:29:48;5.47;;;3.72;;
46613;SDS011;32338;50.430;6.806;2023-06-01T03:32:15;11.85;;;3.90;;
46613;SDS011;32338;50.430;6.806;2023-06-01T03:34:41;5.45;;;3.10;;
46613;SDS011;32338;50.430;6.806;2023-06-01T03:37:08;8.57;;;3.10;;
46613;SDS011;32338;50.430;6.806;2023-06-01T03:39:34;4.78;;;3.00;;
46613;SDS011;32338;50.430;6.806;2023-06-01T03:42:01;6.05;;;2.72;;
46613;SDS011;32338;50.430;6.806;2023-06-01T03:44:29;3.33;;;2.50;;
46613;SDS011;32338;50.430;6.806;2023-06-01T03:46:56;9.05;;;3.78;;
46613;SDS011;32338;50.430;6.806;2023-06-01T03:49:22;11.18;;;4.70;;
46613;SDS011;32338;50.430;6.806;2023-06-01T03:51:49;11.50;;;6.40;;
46613;SDS011;32338;50.430;6.806;2023-06-01T03:54:16;10.73;;;5.43;;
46613;SDS011;32338;50.430;6.806;2023-06-01T03:56:43;14.38;;;6.63;;
46613;SDS011;32338;50.430;6.806;2023-06-01T03:59:09;7.32;;;4.28;;
46613;SDS011;32338;50.430;6.806;2023-06-01T04:01:37;9.93;;;4.88;;
46613;SDS011;32338;50.430;6.806;2023-06-01T04:04:04;8.55;;;5.15;;
46613;SDS011;32338;50.430;6.806;2023-06-01T04:06:31;6.28;;;4.47;;
46613;SDS011;32338;50.430;6.806;2023-06-01T04:09:00;5.72;;;3.42;;
46613;SDS011;32338;50.430;6.806;2023-06-01T04:11:31;11.48;;;4.28;;
46613;SDS011;32338;50.430;6.806;2023-06-01T04:13:58;11.80;;;3.60;;
46613;SDS011;32338;50.430;6.806;2023-06-01T04:16:25;5.45;;;3.20;;
46613;SDS011;32338;50.430;6.806;2023-06-01T04:18:53;9.35;;;3.80;;
46613;SDS011;32338;50.430;6.806;2023-06-01T04:21:20;9.65;;;3.65;;
46613;SDS011;32338;50.430;6.806;2023-06-01T04:23:47;10.00;;;3.47;;
46613;SDS011;32338;50.430;6.806;2023-06-01T04:26:14;6.20;;;3.38;;
46613;SDS011;32338;50.430;6.806;2023-06-01T04:28:41;8.98;;;3.72;;
46613;SDS011;32338;50.430;6.806;2023-06-01T04:31:09;6.75;;;3.25;;
46613;SDS011;32338;50.430;6.806;2023-06-01T04:33:42;8.23;;;2.97;;
46613;SDS011;32338;50.430;6.806;2023-06-01T04:36:12;7.63;;;3.55;;
46613;SDS011;32338;50.430;6.806;2023-06-01T04:38:39;3.75;;;2.80;;
46613;SDS011;32338;50.430;6.806;2023-06-01T04:41:07;9.90;;;2.92;;
46613;SDS011;32338;50.430;6.806;2023-06-01T04:43:35;10.55;;;3.28;;
46613;SDS011;32338;50.430;6.806;2023-06-01T04:46:03;6.72;;;2.85;;
46613;SDS011;32338;50.430;6.806;2023-06-01T04:48:30;6.32;;;2.92;;
46613;SDS011;32338;50.430;6.806;2023-06-01T04:50:57;6.45;;;2.70;;
46613;SDS011;32338;50.430;6.806;2023-06-01T04:53:26;7.88;;;3.03;;
46613;SDS011;32338;50.430;6.806;2023-06-01T04:55:52;5.55;;;2.83;;
46613;SDS011;32338;50.430;6.806;2023-06-01T04:58:21;7.00;;;3.15;;
46613;SDS011;32338;50.430;6.806;2023-06-01T05:00:48;5.40;;;3.00;;
46613;SDS011;32338;50.430;6.806;2023-06-01T05:03:15;3.88;;;2.60;;
46613;SDS011;32338;50.430;6.806;2023-06-01T05:05:42;4.07;;;3.05;;
46613;SDS011;32338;50.430;6.806;2023-06-01T05:08:08;6.55;;;3.35;;
46613;SDS011;32338;50.430;6.806;2023-06-01T05:10:37;5.05;;;3.20;;
46613;SDS011;32338;50.430;6.806;2023-06-01T05:13:04;6.25;;;3.15;;
46613;SDS011;32338;50.430;6.806;2023-06-01T05:15:30;7.47;;;3.80;;
46613;SDS011;32338;50.430;6.806;2023-06-01T05:17:57;8.18;;;3.85;;
46613;SDS011;32338;50.430;6.806;2023-06-01T05:20:23;4.82;;;3.60;;
46613;SDS011;32338;50.430;6.806;2023-06-01T05:22:50;9.77;;;4.07;;
46613;SDS011;32338;50.430;6.806;2023-06-01T05:25:16;15.93;;;4.75;;
46613;SDS011;32338;50.430;6.806;2023-06-01T05:27:44;9.23;;;4.30;;
46613;SDS011;32338;50.430;6.806;2023-06-01T05:30:11;5.85;;;4.35;;
46613;SDS011;32338;50.430;6.806;2023-06-01T05:32:38;10.00;;;5.13;;
46613;SDS011;32338;50.430;6.806;2023-06-01T05:35:05;7.05;;;4.90;;
46613;SDS011;32338;50.430;6.806;2023-06-01T05:37:33;12.90;;;5.15;;
46613;SDS011;32338;50.430;6.806;2023-06-01T05:39:59;10.88;;;4.90;;
46613;SDS011;32338;50.430;6.806;2023-06-01T05:42:26;5.43;;;4.63;;
46613;SDS011;32338;50.430;6.806;2023-06-01T05:44:54;6.47;;;5.25;;
46613;SDS011;32338;50.430;6.806;2023-06-01T05:47:20;10.02;;;5.35;;
46613;SDS011;32338;50.430;6.806;2023-06-01T05:49:47;8.73;;;6.30;;
46613;SDS011;32338;50.430;6.806;2023-06-01T05:52:13;14.32;;;6.60;;
46613;SDS011;32338;50.430;6.806;2023-06-01T05:54:40;13.35;;;6.55;;
46613;SDS011;32338;50.430;6.806;2023-06-01T05:57:07;12.10;;;6.45;;
46613;SDS011;32338;50.430;6.806;2023-06-01T05:59:34;12.65;;;5.97;;
46613;SDS011;32338;50.430;6.806;2023-06-01T06:02:02;13.38;;;6.03;;
46613;SDS011;32338;50.430;6.806;2023-06-01T06:04:28;8.85;;;6.50;;
46613;SDS011;32338;50.430;6.806;2023-06-01T06:06:55;11.48;;;6.75;;
46613;SDS011;32338;50.430;6.806;2023-06-01T06:09:21;12.68;;;5.40;;
46613;SDS011;32338;50.430;6.806;2023-06-01T06:11:48;14.02;;;6.30;;
46613;SDS011;32338;50.430;6.806;2023-06-01T06:14:15;12.25;;;6.38;;
46613;SDS011;32338;50.430;6.806;2023-06-01T06:16:41;8.52;;;5.85;;
46613;SDS011;32338;50.430;6.806;2023-06-01T06:19:09;10.02;;;6.15;;
46613;SDS011;32338;50.430;6.806;2023-06-01T06:21:37;12.35;;;5.95;;
46613;SDS011;32338;50.430;6.806;2023-06-01T06:24:04;10.40;;;6.22;;
46613;SDS011;32338;50.430;6.806;2023-06-01T06:26:31;9.75;;;6.25;;
46613;SDS011;32338;50.430;6.806;2023-06-01T06:28:57;12.05;;;5.50;;
46613;SDS011;32338;50.430;6.806;2023-06-01T06:31:24;13.40;;;5.90;;
46613;SDS011;32338;50.430;6.806;2023-06-01T06:33:50;10.98;;;5.57;;
46613;SDS011;32338;50.430;6.806;2023-06-01T06:36:19;12.07;;;5.72;;
46613;SDS011;32338;50.430;6.806;2023-06-01T06:38:46;8.95;;;6.28;;
46613;SDS011;32338;50.430;6.806;2023-06-01T06:41:12;12.90;;;6.32;;
46613;SDS011;32338;50.430;6.806;2023-06-01T06:43:39;9.27;;;6.28;;
46613;SDS011;32338;50.430;6.806;2023-06-01T06:46:06;10.90;;;6.38;;
46613;SDS011;32338;50.430;6.806;2023-06-01T06:48:33;8.23;;;6.00;;
46613;SDS011;32338;50.430;6.806;2023-06-01T06:50:59;13.13;;;6.72;;
46613;SDS011;32338;50.430;6.806;2023-06-01T06:53:28;11.93;;;6.70;;
46613;SDS011;32338;50.430;6.806;2023-06-01T06:55:55;10.13;;;6.47;;
46613;SDS011;32338;50.430;6.806;2023-06-01T06:58:22;8.50;;;5.28;;
46613;SDS011;32338;50.430;6.806;2023-06-01T07:00:48;12.68;;;6.18;;
46613;SDS011;32338;50.430;6.806;2023-06-01T07:03:15;9.88;;;6.00;;
46613;SDS011;32338;50.430;6.806;2023-06-01T07:05:43;18.52;;;7.60;;
46613;SDS011;32338;50.430;6.806;2023-06-01T07:08:10;15.48;;;7.00;;
46613;SDS011;32338;50.430;6.806;2023-06-01T07:10:38;14.25;;;6.95;;
46613;SDS011;32338;50.430;6.806;2023-06-01T07:13:05;14.57;;;6.65;;
46613;SDS011;32338;50.430;6.806;2023-06-01T07:15:31;11.27;;;6.38;;
46613;SDS011;32338;50.430;6.806;2023-06-01T07:17:58;13.88;;;7.47;;
46613;SDS011;32338;50.430;6.806;2023-06-01T07:20:24;16.48;;;7.63;;
46613;SDS011;32338;50.430;6.806;2023-06-01T07:22:51;13.77;;;7.22;;
46613;SDS011;32338;50.430;6.806;2023-06-01T07:25:17;16.67;;;8.32;;
46613;SDS011;32338;50.430;6.806;2023-06-01T07:27:45;11.85;;;7.43;;
46613;SDS011;32338;50.430;6.806;2023-06-01T07:30:13;19.23;;;8.93;;
46613;SDS011;32338;50.430;6.806;2023-06-01T07:32:40;14.60;;;9.90;;
46613;SDS011;32338;50.430;6.806;2023-06-01T07:35:08;20.42;;;10.85;;
46613;SDS011;32338;50.430;6.806;2023-06-01T07:37:35;16.08;;;11.15;;
46613;SDS011;32338;50.430;6.806;2023-06-01T07:40:02;14.27;;;9.80;;
46613;SDS011;32338;50.430;6.806;2023-06-01T07:42:30;19.92;;;10.45;;
46613;SDS011;32338;50.430;6.806;2023-06-01T07:44:58;14.57;;;10.45;;
46613;SDS011;32338;50.430;6.806;2023-06-01T07:47:25;23.67;;;12.50;;
46613;SDS011;32338;50.430;6.806;2023-06-01T07:49:51;19.20;;;11.20;;
46613;SDS011;32338;50.430;6.806;2023-06-01T07:52:18;17.52;;;10.52;;
46613;SDS011;32338;50.430;6.806;2023-06-01T07:54:44;13.52;;;8.70;;
46613;SDS011;32338;50.430;6.806;2023-06-01T07:57:12;18.25;;;10.30;;
46613;SDS011;32338;50.430;6.806;2023-06-01T07:59:39;17.30;;;10.55;;
46613;SDS011;32338;50.430;6.806;2023-06-01T08:02:07;12.38;;;9.90;;
46613;SDS011;32338;50.430;6.806;2023-06-01T08:04:35;16.88;;;12.13;;
46613;SDS011;32338;50.430;6.806;2023-06-01T08:07:03;18.50;;;11.13;;
46613;SDS011;32338;50.430;6.806;2023-06-01T08:09:31;18.52;;;12.63;;
46613;SDS011;32338;50.430;6.806;2023-06-01T08:11:58;16.88;;;12.70;;
46613;SDS011;32338;50.430;6.806;2023-06-01T08:14:25;16.45;;;11.23;;
46613;SDS011;32338;50.430;6.806;2023-06-01T08:16:52;19.63;;;11.27;;
46613;SDS011;32338;50.430;6.806;2023-06-01T08:19:20;18.35;;;13.55;;
46613;SDS011;32338;50.430;6.806;2023-06-01T08:21:46;22.83;;;16.35;;
46613;SDS011;32338;50.430;6.806;2023-06-01T08:24:13;24.08;;;14.52;;
46613;SDS011;32338;50.430;6.806;2023-06-01T08:26:40;24.17;;;16.70;;
46613;SDS011;32338;50.430;6.806;2023-06-01T08:29:07;21.98;;;15.23;;
46613;SDS011;32338;50.430;6.806;2023-06-01T08:31:34;19.90;;;15.07;;
46613;SDS011;32338;50.430;6.806;2023-06-01T08:34:02;19.95;;;15.73;;
46613;SDS011;32338;50.430;6.806;2023-06-01T08:36:29;22.65;;;14.57;;
46613;SDS011;32338;50.430;6.806;2023-06-01T08:38:56;23.02;;;18.02;;
46613;SDS011;32338;50.430;6.806;2023-06-01T08:41:24;23.08;;;16.33;;
46613;SDS011;32338;50.430;6.806;2023-06-01T08:43:58;17.63;;;15.32;;
46613;SDS011;32338;50.430;6.806;2023-06-01T08:46:28;19.38;;;16.10;;
46613;SDS011;32338;50.430;6.806;2023-06-01T08:48:57;24.88;;;17.27;;
46613;SDS011;32338;50.430;6.806;2023-06-01T08:51:25;19.98;;;15.43;;
46613;SDS011;32338;50.430;6.806;2023-06-01T08:53:53;22.25;;;14.50;;
46613;SDS011;32338;50.430;6.806;2023-06-01T08:56:23;23.55;;;15.05;;
46613;SDS011;32338;50.430;6.806;2023-06-01T08:58:50;20.05;;;13.85;;
46613;SDS011;32338;50.430;6.806;2023-06-01T09:01:18;20.40;;;13.75;;
46613;SDS011;32338;50.430;6.806;2023-06-01T09:03:46;17.65;;;13.35;;
46613;SDS011;32338;50.430;6.806;2023-06-01T09:06:13;16.00;;;12.90;;
46613;SDS011;32338;50.430;6.806;2023-06-01T09:08:41;16.05;;;13.18;;
46613;SDS011;32338;50.430;6.806;2023-06-01T09:11:08;15.93;;;12.68;;
46613;SDS011;32338;50.430;6.806;2023-06-01T09:13:35;16.80;;;12.35;;
46613;SDS011;32338;50.430;6.806;2023-06-01T09:16:04;15.02;;;11.63;;
46613;SDS011;32338;50.430;6.806;2023-06-01T09:18:31;23.73;;;14.57;;
46613;SDS011;32338;50.430;6.806;2023-06-01T09:21:09;16.80;;;14.70;;
46613;SDS011;32338;50.430;6.806;2023-06-01T09:23:36;16.10;;;12.68;;
46613;SDS011;32338;50.430;6.806;2023-06-01T09:26:04;13.88;;;8.77;;
46613;SDS011;32338;50.430;6.806;2023-06-01T09:28:40;10.73;;;8.60;;
46613;SDS011;32338;50.430;6.806;2023-06-01T09:34:06;15.82;;;8.98;;
46613;SDS011;32338;50.430;6.806;2023-06-01T09:36:34;17.83;;;12.18;;
46613;SDS011;32338;50.430;6.806;2023-06-01T09:39:01;15.75;;;11.73;;
46613;SDS011;32338;50.430;6.806;2023-06-01T09:41:43;23.17;;;15.60;;
46613;SDS011;32338;50.430;6.806;2023-06-01T09:44:22;15.90;;;11.60;;
46613;SDS011;32338;50.430;6.806;2023-06-01T09:46:54;23.27;;;14.35;;
46613;SDS011;32338;50.430;6.806;2023-06-01T09:49:22;17.83;;;12.82;;
46613;SDS011;32338;50.430;6.806;2023-06-01T09:51:51;21.58;;;15.30;;
46613;SDS011;32338;50.430;6.806;2023-06-01T09:54:22;20.20;;;14.77;;
46613;SDS011;32338;50.430;6.806;2023-06-01T09:56:50;25.38;;;18.13;;
46613;SDS011;32338;50.430;6.806;2023-06-01T09:59:19;26.50;;;18.27;;
46613;SDS011;32338;50.430;6.806;2023-06-01T10:01:49;27.20;;;18.08;;
46613;SDS011;32338;50.430;6.806;2023-06-01T10:04:19;27.83;;;17.85;;
46613;SDS011;32338;50.430;6.806;2023-06-01T10:06:47;27.45;;;18.58;;
46613;SDS011;32338;50.430;6.806;2023-06-01T10:09:17;26.73;;;18.33;;
46613;SDS011;32338;50.430;6.806;2023-06-01T10:11:45;23.58;;;17.83;;
46613;SDS011;32338;50.430;6.806;2023-06-01T10:14:12;24.33;;;16.75;;
46613;SDS011;32338;50.430;6.806;2023-06-01T10:16:41;28.35;;;19.05;;
46613;SDS011;32338;50.430;6.806;2023-06-01T10:19:08;29.35;;;18.17;;
46613;SDS011;32338;50.430;6.806;2023-06-01T10:21:35;28.38;;;18.95;;
46613;SDS011;32338;50.430;6.806;2023-06-01T10:24:05;38.63;;;21.65;;
46613;SDS011;32338;50.430;6.806;2023-06-01T10:26:33;31.30;;;21.20;;
46613;SDS011;32338;50.430;6.806;2023-06-01T10:29:04;29.20;;;21.63;;
46613;SDS011;32338;50.430;6.806;2023-06-01T10:31:32;32.05;;;20.55;;
46613;SDS011;32338;50.430;6.806;2023-06-01T10:34:01;32.42;;;22.05;;
46613;SDS011;32338;50.430;6.806;2023-06-01T10:39:28;30.63;;;20.20;;
46613;SDS011;32338;50.430;6.806;2023-06-01T10:41:56;32.65;;;19.80;;
46613;SDS011;32338;50.430;6.806;2023-06-01T10:50:15;24.38;;;15.55;;
46613;SDS011;32338;50.430;6.806;2023-06-01T10:52:42;29.17;;;16.88;;
46613;SDS011;32338;50.430;6.806;2023-06-01T10:55:18;34.08;;;20.08;;
46613;SDS011;32338;50.430;6.806;2023-06-01T11:00:51;43.05;;;23.73;;
46613;SDS011;32338;50.430;6.806;2023-06-01T11:06:15;32.80;;;19.23;;
46613;SDS011;32338;50.430;6.806;2023-06-01T11:08:51;43.25;;;19.67;;
46613;SDS011;32338;50.430;6.806;2023-06-01T11:11:23;34.10;;;18.58;;
46613;SDS011;32338;50.430;6.806;2023-06-01T11:14:23;34.88;;;17.83;;
46613;SDS011;32338;50.430;6.806;2023-06-01T11:16:51;28.00;;;16.55;;
46613;SDS011;32338;50.430;6.806;2023-06-01T11:19:18;28.33;;;15.98;;
46613;SDS011;32338;50.430;6.806;2023-06-01T11:21:54;31.30;;;16.02;;
46613;SDS011;32338;50.430;6.806;2023-06-01T11:24:21;34.50;;;19.95;;
46613;SDS011;32338;50.430;6.806;2023-06-01T11:26:50;41.83;;;23.77;;
46613;SDS011;32338;50.430;6.806;2023-06-01T11:29:17;45.22;;;24.75;;
46613;SDS011;32338;50.430;6.806;2023-06-01T11:31:46;31.77;;;19.40;;
46613;SDS011;32338;50.430;6.806;2023-06-01T11:34:14;23.75;;;14.95;;
46613;SDS011;32338;50.430;6.806;2023-06-01T11:36:44;22.50;;;12.77;;
46613;SDS011;32338;50.430;6.806;2023-06-01T11:39:18;20.77;;;12.55;;
46613;SDS011;32338;50.430;6.806;2023-06-01T11:41:47;20.30;;;14.05;;
46613;SDS011;32338;50.430;6.806;2023-06-01T11:44:15;22.75;;;14.63;;
46613;SDS011;32338;50.430;6.806;2023-06-01T11:46:54;24.73;;;16.10;;
46613;SDS011;32338;50.430;6.806;2023-06-01T11:49:23;21.13;;;14.77;;
46613;SDS011;32338;50.430;6.806;2023-06-01T11:51:50;27.17;;;16.65;;
46613;SDS011;32338;50.430;6.806;2023-06-01T11:54:23;29.38;;;18.05;;
46613;SDS011;32338;50.430;6.806;2023-06-01T11:56:51;25.88;;;17.10;;
46613;SDS011;32338;50.430;6.806;2023-06-01T11:59:18;23.90;;;15.82;;
46613;SDS011;32338;50.430;6.806;2023-06-01T12:01:46;20.23;;;15.50;;
46613;SDS011;32338;50.430;6.806;2023-06-01T12:04:13;27.52;;;17.27;;
46613;SDS011;32338;50.430;6.806;2023-06-01T12:06:40;28.63;;;16.27;;
46613;SDS011;32338;50.430;6.806;2023-06-01T12:09:08;33.90;;;18.98;;
46613;SDS011;32338;50.430;6.806;2023-06-01T12:11:36;21.75;;;15.73;;
46613;SDS011;32338;50.430;6.806;2023-06-01T12:14:04;29.27;;;18.38;;
46613;SDS011;32338;50.430;6.806;2023-06-01T12:16:51;33.45;;;21.10;;
46613;SDS011;32338;50.430;6.806;2023-06-01T12:19:18;27.42;;;18.95;;
46613;SDS011;32338;50.430;6.806;2023-06-01T12:21:46;32.70;;;23.00;;
46613;SDS011;32338;50.430;6.806;2023-06-01T12:24:15;29.33;;;21.05;;
46613;SDS011;32338;50.430;6.806;2023-06-01T12:26:44;31.23;;;20.60;;
46613;SDS011;32338;50.430;6.806;2023-06-01T12:29:10;27.33;;;18.65;;
46613;SDS011;32338;50.430;6.806;2023-06-01T12:31:37;34.95;;;20.63;;
46613;SDS011;32338;50.430;6.806;2023-06-01T12:34:03;32.03;;;20.48;;
46613;SDS011;32338;50.430;6.806;2023-06-01T12:36:41;30.58;;;18.65;;
46613;SDS011;32338;50.430;6.806;2023-06-01T12:39:08;29.85;;;19.77;;
46613;SDS011;32338;50.430;6.806;2023-06-01T12:41:35;25.77;;;18.95;;
46613;SDS011;32338;50.430;6.806;2023-06-01T12:44:03;26.08;;;19.55;;
46613;SDS011;32338;50.430;6.806;2023-06-01T12:46:30;24.85;;;19.50;;
46613;SDS011;32338;50.430;6.806;2023-06-01T12:49:10;22.33;;;16.75;;
46613;SDS011;32338;50.430;6.806;2023-06-01T12:51:38;22.25;;;15.02;;
46613;SDS011;32338;50.430;6.806;2023-06-01T12:54:04;21.85;;;16.23;;
46613;SDS011;32338;50.430;6.806;2023-06-01T12:56:31;21.33;;;15.25;;
46613;SDS011;32338;50.430;6.806;2023-06-01T12:58:57;22.17;;;15.77;;
46613;SDS011;32338;50.430;6.806;2023-06-01T13:01:25;21.33;;;14.27;;
46613;SDS011;32338;50.430;6.806;2023-06-01T13:03:52;24.15;;;13.77;;
46613;SDS011;32338;50.430;6.806;2023-06-01T13:06:19;19.40;;;12.48;;
46613;SDS011;32338;50.430;6.806;2023-06-01T13:08:46;17.20;;;13.05;;
46613;SDS011;32338;50.430;6.806;2023-06-01T13:11:13;16.60;;;12.15;;
46613;SDS011;32338;50.430;6.806;2023-06-01T13:13:41;22.00;;;10.73;;
46613;SDS011;32338;50.430;6.806;2023-06-01T13:16:07;17.85;;;10.43;;
46613;SDS011;32338;50.430;6.806;2023-06-01T13:18:35;11.75;;;9.15;;
46613;SDS011;32338;50.430;6.806;2023-06-01T13:21:02;21.23;;;10.43;;
46613;SDS011;32338;50.430;6.806;2023-06-01T13:23:29;13.52;;;9.35;;
46613;SDS011;32338;50.430;6.806;2023-06-01T13:25:56;14.95;;;9.02;;
46613;SDS011;32338;50.430;6.806;2023-06-01T13:28:24;13.93;;;8.93;;
46613;SDS011;32338;50.430;6.806;2023-06-01T13:30:50;18.88;;;10.07;;
46613;SDS011;32338;50.430;6.806;2023-06-01T13:33:17;18.17;;;9.57;;
46613;SDS011;32338;50.430;6.806;2023-06-01T13:35:45;15.13;;;8.57;;
46613;SDS011;32338;50.430;6.806;2023-06-01T13:38:12;12.48;;;8.88;;
46613;SDS011;32338;50.430;6.806;2023-06-01T13:40:39;16.15;;;8.07;;
46613;SDS011;32338;50.430;6.806;2023-06-01T13:43:05;13.25;;;7.00;;
46613;SDS011;32338;50.430;6.806;2023-06-01T13:45:32;11.70;;;6.25;;
46613;SDS011;32338;50.430;6.806;2023-06-01T13:47:59;17.48;;;6.90;;
46613;SDS011;32338;50.430;6.806;2023-06-01T13:50:25;11.30;;;6.85;;
46613;SDS011;32338;50.430;6.806;2023-06-01T13:52:53;14.20;;;6.82;;
46613;SDS011;32338;50.430;6.806;2023-06-01T13:55:20;11.60;;;6.47;;
46613;SDS011;32338;50.430;6.806;2023-06-01T13:57:47;13.57;;;6.53;;
46613;SDS011;32338;50.430;6.806;2023-06-01T14:00:14;10.60;;;6.45;;
46613;SDS011;32338;50.430;6.806;2023-06-01T14:02:42;18.52;;;6.05;;
46613;SDS011;32338;50.430;6.806;2023-06-01T14:05:08;8.13;;;5.65;;
46613;SDS011;32338;50.430;6.806;2023-06-01T14:07:37;12.63;;;6.13;;
46613;SDS011;32338;50.430;6.806;2023-06-01T14:10:06;9.32;;;6.05;;
46613;SDS011;32338;50.430;6.806;2023-06-01T14:12:33;8.82;;;6.00;;
46613;SDS011;32338;50.430;6.806;2023-06-01T14:14:59;11.63;;;6.53;;
46613;SDS011;32338;50.430;6.806;2023-06-01T14:17:26;15.30;;;6.97;;
46613;SDS011;32338;50.430;6.806;2023-06-01T14:19:53;10.10;;;5.75;;
46613;SDS011;32338;50.430;6.806;2023-06-01T14:22:19;11.50;;;5.28;;
46613;SDS011;32338;50.430;6.806;2023-06-01T14:24:46;12.57;;;6.70;;
46613;SDS011;32338;50.430;6.806;2023-06-01T14:27:14;13.32;;;6.47;;
46613;SDS011;32338;50.430;6.806;2023-06-01T14:29:41;8.45;;;6.07;;
46613;SDS011;32338;50.430;6.806;2023-06-01T14:32:08;11.40;;;6.95;;
46613;SDS011;32338;50.430;6.806;2023-06-01T14:34:34;14.30;;;6.10;;
46613;SDS011;32338;50.430;6.806;2023-06-01T14:37:01;10.18;;;6.07;;
46613;SDS011;32338;50.430;6.806;2023-06-01T14:39:29;12.05;;;6.10;;
46613;SDS011;32338;50.430;6.806;2023-06-01T14:41:56;11.82;;;6.90;;
46613;SDS011;32338;50.430;6.806;2023-06-01T14:44:24;12.13;;;6.28;;
46613;SDS011;32338;50.430;6.806;2023-06-01T14:46:50;7.72;;;5.82;;
46613;SDS011;32338;50.430;6.806;2023-06-01T14:49:17;12.63;;;5.45;;
46613;SDS011;32338;50.430;6.806;2023-06-01T14:51:44;10.15;;;5.30;;
46613;SDS011;32338;50.430;6.806;2023-06-01T14:54:10;9.85;;;5.45;;
46613;SDS011;32338;50.430;6.806;2023-06-01T14:56:37;11.05;;;5.55;;